Time;durP1;ratioP1;P1;durP2;ratioP2;P2;SDS_P1;SDS_P2;PMS_P1;PMS_P2;Temp;Humidity;BMP_temperature;BMP_pressure;BME280_temperature;BME280_humidity;BME280_pressure;Samples;Min_cycle;Max_cycle;Signal;HPM_P1;HPM_P2
2023/10/26 00:00:16;;;;;;;;;;;;;;;15.25;nan;99676.53;4974472;28;19926;-92
2023/10/26 00:03:01;;;;;;;;;;;;;;;15.25;nan;99678.44;4973652;28;19978;-92
2023/10/26 00:05:35;;;;;;;;;;;;;;;15.26;nan;99670.06;4972319;28;20457;-92
2023/10/26 00:08:01;;;;;;;;;;;;;;;15.26;nan;99672.78;4974724;28;20408;-92
2023/10/26 00:10:27;;;;;;;;;;;;;;;15.27;nan;99673.56;4972906;28;21384;-92
2023/10/26 00:12:59;;;;;;;;;;;;;;;15.27;nan;99668.19;4969968;28;20033;-92
2023/10/26 00:15:28;;;;;;;;;;;;;;;15.22;nan;99660.19;4970890;28;20095;-90
2023/10/26 00:17:58;;;;;;;;;;;;;;;15.19;nan;99663.47;4973040;28;19957;-92
2023/10/26 00:20:24;;;;;;;;;;;;;;;15.20;nan;99660.47;4972252;28;19918;-92
2023/10/26 00:22:51;;;;;;;;;;;;;;;15.26;nan;99661.16;4972844;28;19932;-92
2023/10/26 00:25:20;;;;;;;;;;;;;;;15.30;nan;99659.47;4969664;28;19926;-91
2023/10/26 00:27:54;;;;;;;;;;;;;;;15.33;nan;99656.16;4974706;28;19929;-92
2023/10/26 00:30:19;;;;;;;;;;;;;;;15.34;nan;99634.25;4972369;28;19926;-92
2023/10/26 00:32:46;;;;;;;;;;;;;;;15.39;nan;99642.22;4974579;28;20333;-92
2023/10/26 00:35:12;;;;;;;;;;;;;;;15.42;nan;99640.81;4973569;28;19934;-90
2023/10/26 00:37:41;;;;;;;;;;;;;;;15.42;nan;99635.41;4966670;28;19932;-93
2023/10/26 00:40:07;;;;;;;;;;;;;;;15.43;nan;99631.59;4974274;28;19925;-92
2023/10/26 00:42:35;;;;;;;;;;;;;;;15.48;nan;99633.41;4971491;28;19929;-91
2023/10/26 00:45:02;;;;;;;;;;;;;;;15.53;nan;99625.16;4975334;28;19984;-92
2023/10/26 00:47:31;;;;;;;;;;;;;;;15.58;nan;99623.13;4972698;28;20317;-94
2023/10/26 00:49:58;;;;;;;;;;;;;;;15.62;nan;99623.38;4974900;28;19950;-92
2023/10/26 00:52:26;;;;;;;;;;;;;;;15.64;nan;99623.84;4973854;28;19977;-92
2023/10/26 00:54:56;;;;;;;;;;;;;;;15.63;nan;99609.56;4971897;28;20437;-91
2023/10/26 00:57:24;;;;;;;;;;;;;;;15.64;nan;99615.75;4973840;28;19928;-91
2023/10/26 00:59:52;;;;;;;;;;;;;;;15.65;nan;99611.94;4975246;28;19945;-93
2023/10/26 01:02:18;;;;;;;;;;;;;;;15.67;nan;99610.53;4976518;28;20002;-91
2023/10/26 01:04:46;;;;;;;;;;;;;;;15.68;nan;99603.22;4971485;28;19958;-92
2023/10/26 01:07:24;;;;;;;;;;;;;;;15.68;nan;99608.63;4972844;28;19933;-91
2023/10/26 01:10:00;;;;;;;;;;;;;;;15.69;nan;99599.41;4971826;28;19926;-91
2023/10/26 01:12:31;;;;;;;;;;;;;;;15.71;nan;99599.91;4976884;28;19918;-91
2023/10/26 01:15:18;;;;;;;;;;;;;;;15.73;nan;99589.56;4973064;28;19922;-91
2023/10/26 01:17:47;;;;;;;;;;;;;;;15.76;nan;99591.66;4971381;28;19964;-92
2023/10/26 01:20:16;;;;;;;;;;;;;;;15.79;nan;99595.63;4973266;28;20009;-93
2023/10/26 01:22:44;;;;;;;;;;;;;;;15.82;nan;99592.34;4977522;28;19933;-91
2023/10/26 01:25:12;;;;;;;;;;;;;;;15.84;nan;99590.91;4977461;28;19972;-92
2023/10/26 01:27:43;;;;;;;;;;;;;;;15.87;nan;99595.69;4974361;28;19948;-91
2023/10/26 01:30:13;;;;;;;;;;;;;;;15.87;nan;99592.19;4977436;28;20393;-92
2023/10/26 01:32:40;;;;;;;;;;;;;;;15.88;nan;99594.59;4972753;28;19933;-92
2023/10/26 01:35:10;;;;;;;;;;;;;;;15.88;nan;99582.97;4975034;28;20501;-91
2023/10/26 01:37:39;;;;;;;;;;;;;;;15.87;nan;99573.28;4976917;28;19961;-91
2023/10/26 01:40:07;;;;;;;;;;;;;;;15.88;nan;99572.97;4976869;28;20472;-93
2023/10/26 01:42:32;;;;;;;;;;;;;;;15.90;nan;99570.75;4972779;28;19925;-91
2023/10/26 01:44:58;;;;;;;;;;;;;;;15.92;nan;99568.53;4961869;28;19933;-92
2023/10/26 01:47:25;;;;;;;;;;;;;;;15.95;nan;99573.31;4977150;28;20017;-90
2023/10/26 01:49:53;;;;;;;;;;;;;;;15.97;nan;99570.28;4975510;28;20008;-92
2023/10/26 01:52:23;;;;;;;;;;;;;;;15.98;nan;99571.91;4973948;28;19926;-92
2023/10/26 01:54:50;;;;;;;;;;;;;;;15.97;nan;99565.69;4987944;28;19922;-91
2023/10/26 01:57:15;;;;;;;;;;;;;;;15.97;nan;99560.28;4980614;28;19922;-90
2023/10/26 01:59:41;;;;;;;;;;;;;;;15.98;nan;99556.50;4979608;28;19925;-92
2023/10/26 02:02:07;;;;;;;;;;;;;;;16.00;nan;99565.09;4975109;28;20293;-92
2023/10/26 02:04:54;;;;;;;;;;;;;;;16.04;nan;99567.16;4975724;28;19922;-91
2023/10/26 02:07:21;;;;;;;;;;;;;;;16.06;nan;99557.63;4975491;28;20268;-91
2023/10/26 02:09:48;;;;;;;;;;;;;;;16.07;nan;99566.53;4974755;28;20014;-92
2023/10/26 02:12:14;;;;;;;;;;;;;;;16.05;nan;99553.34;4975648;28;19918;-90
2023/10/26 02:14:41;;;;;;;;;;;;;;;16.04;nan;99554.44;4975106;28;19922;-92
2023/10/26 02:17:07;;;;;;;;;;;;;;;16.05;nan;99552.53;4965545;28;19929;-92
2023/10/26 02:19:33;;;;;;;;;;;;;;;16.04;nan;99550.94;4978175;28;19922;-92
2023/10/26 02:22:01;;;;;;;;;;;;;;;16.04;nan;99554.44;4977084;28;19922;-91
2023/10/26 02:24:30;;;;;;;;;;;;;;;16.06;nan;99562.22;4973912;28;20756;-91
2023/10/26 02:26:59;;;;;;;;;;;;;;;16.08;nan;99558.09;4973628;28;19957;-91
2023/10/26 02:29:25;;;;;;;;;;;;;;;16.10;nan;99558.59;4974230;28;19965;-91
2023/10/26 02:31:52;;;;;;;;;;;;;;;16.13;nan;99554.47;4973842;28;19925;-92
2023/10/26 02:34:20;;;;;;;;;;;;;;;16.15;nan;99552.22;4978835;28;20182;-92
2023/10/26 02:36:46;;;;;;;;;;;;;;;16.16;nan;99551.94;4980239;28;20386;-91
2023/10/26 02:39:12;;;;;;;;;;;;;;;16.16;nan;99546.53;4971725;28;20450;-91
2023/10/26 02:41:39;;;;;;;;;;;;;;;16.18;nan;99543.53;4974141;28;19921;-92
2023/10/26 02:44:06;;;;;;;;;;;;;;;16.20;nan;99546.69;4974164;28;21238;-90
2023/10/26 02:46:35;;;;;;;;;;;;;;;16.21;nan;99542.88;4977470;28;20053;-89
2023/10/26 02:49:02;;;;;;;;;;;;;;;16.24;nan;99542.25;4979283;28;19918;-91
2023/10/26 02:51:31;;;;;;;;;;;;;;;16.25;nan;99536.53;4970761;28;19933;-91
2023/10/26 02:54:00;;;;;;;;;;;;;;;16.26;nan;99535.41;4972885;28;19929;-91
2023/10/26 02:56:25;;;;;;;;;;;;;;;16.26;nan;99540.03;4973966;28;19922;-92
2023/10/26 02:59:00;;;;;;;;;;;;;;;16.27;nan;99536.22;4977293;28;20041;-92
2023/10/26 03:01:31;;;;;;;;;;;;;;;16.27;nan;99537.00;4974213;28;20049;-92
2023/10/26 03:03:56;;;;;;;;;;;;;;;16.28;nan;99533.19;4980441;28;19926;-91
2023/10/26 03:06:29;;;;;;;;;;;;;;;16.30;nan;99527.47;4976233;28;19925;-91
2023/10/26 03:09:08;;;;;;;;;;;;;;;16.31;nan;99524.44;4977589;28;19922;-91
2023/10/26 03:11:34;;;;;;;;;;;;;;;16.32;nan;99528.75;4975275;28;19918;-91
2023/10/26 03:14:01;;;;;;;;;;;;;;;16.35;nan;99531.97;4977493;28;19988;-92
2023/10/26 03:16:26;;;;;;;;;;;;;;;16.36;nan;99515.41;4980617;28;20216;-90
2023/10/26 03:18:53;;;;;;;;;;;;;;;16.37;nan;99525.13;4978885;28;19979;-91
2023/10/26 03:21:20;;;;;;;;;;;;;;;16.38;nan;99526.72;4976883;28;19926;-92
2023/10/26 03:23:52;;;;;;;;;;;;;;;16.38;nan;99521.31;4976411;28;19925;-91
2023/10/26 03:26:21;;;;;;;;;;;;;;;16.39;nan;99522.88;4977465;28;19926;-90
2023/10/26 03:28:52;;;;;;;;;;;;;;;16.40;nan;99516.38;4977250;28;20477;-91
2023/10/26 03:31:17;;;;;;;;;;;;;;;16.40;nan;99512.88;4972418;28;20292;-91
2023/10/26 03:33:47;;;;;;;;;;;;;;;16.42;nan;99505.25;4975563;28;19971;-90
2023/10/26 03:36:17;;;;;;;;;;;;;;;16.45;nan;99513.50;4980941;28;20016;-90
2023/10/26 03:39:00;;;;;;;;;;;;;;;16.48;nan;99509.38;4975651;28;20044;-91
2023/10/26 03:41:27;;;;;;;;;;;;;;;16.49;nan;99511.75;4973210;28;20033;-90
2023/10/26 03:43:54;;;;;;;;;;;;;;;16.50;nan;99507.94;4974623;28;19922;-90
2023/10/26 03:46:20;;;;;;;;;;;;;;;16.52;nan;99508.44;4978051;28;19926;-90
2023/10/26 03:48:46;;;;;;;;;;;;;;;16.54;nan;99508.91;4972085;28;19922;-89
2023/10/26 03:51:12;;;;;;;;;;;;;;;16.55;nan;99507.81;4974732;28;19918;-90
2023/10/26 03:53:40;;;;;;;;;;;;;;;16.57;nan;99502.06;4974629;28;19930;-90
2023/10/26 03:56:09;;;;;;;;;;;;;;;16.57;nan;99500.16;4972697;28;19922;-90
2023/10/26 03:58:44;;;;;;;;;;;;;;;16.59;nan;99499.84;4977144;28;19921;-89
2023/10/26 04:01:10;;;;;;;;;;;;;;;16.59;nan;99491.72;4975599;28;20405;-90
2023/10/26 04:03:42;;;;;;;;;;;;;;;16.59;nan;99497.94;4971708;28;19926;-88
2023/10/26 04:06:13;;;;;;;;;;;;;;;16.61;nan;99493.00;4972995;28;19977;-89
2023/10/26 04:08:48;;;;;;;;;;;;;;;16.63;nan;99489.97;4971459;28;19926;-89
2023/10/26 04:11:17;;;;;;;;;;;;;;;16.63;nan;99485.34;4976279;28;19918;-89
2023/10/26 04:13:44;;;;;;;;;;;;;;;16.66;nan;99483.91;4974296;28;19924;-89
2023/10/26 04:16:11;;;;;;;;;;;;;;;16.69;nan;99485.22;4975539;28;19922;-89
2023/10/26 04:18:39;;;;;;;;;;;;;;;16.69;nan;99477.91;4972694;28;20012;-89
2023/10/26 04:21:25;;;;;;;;;;;;;;;16.71;nan;99474.91;4972003;28;19929;-89
2023/10/26 04:23:55;;;;;;;;;;;;;;;16.72;nan;99471.09;4969986;28;19936;-89
2023/10/26 04:26:23;;;;;;;;;;;;;;;16.73;nan;99469.97;4971649;28;19932;-88
2023/10/26 04:28:51;;;;;;;;;;;;;;;16.72;nan;99465.69;4971743;28;19966;-88
2023/10/26 04:31:21;;;;;;;;;;;;;;;16.72;nan;99466.47;4966096;28;19948;-88
2023/10/26 04:33:49;;;;;;;;;;;;;;;16.74;nan;99461.53;4965798;28;19922;-88
2023/10/26 04:36:24;;;;;;;;;;;;;;;16.75;nan;99456.91;4967545;28;19922;-88
2023/10/26 04:38:51;;;;;;;;;;;;;;;16.76;nan;99458.50;4968448;28;19984;-87
2023/10/26 04:41:17;;;;;;;;;;;;;;;16.75;nan;99460.41;4967306;28;19933;-89
2023/10/26 04:43:45;;;;;;;;;;;;;;;16.75;nan;99455.00;4965383;28;20390;-88
2023/10/26 04:46:14;;;;;;;;;;;;;;;16.76;nan;99455.81;4968927;28;19930;-89
2023/10/26 04:48:41;;;;;;;;;;;;;;;16.77;nan;99454.69;4972060;28;20279;-88
2023/10/26 04:51:08;;;;;;;;;;;;;;;16.77;nan;99451.97;4966274;28;20016;-88
2023/10/26 04:53:44;;;;;;;;;;;;;;;16.77;nan;99446.56;4967225;28;20034;-88
2023/10/26 04:56:11;;;;;;;;;;;;;;;16.78;nan;99453.56;4973282;28;19930;-88
2023/10/26 04:58:38;;;;;;;;;;;;;;;16.78;nan;99448.16;4971249;28;19922;-88
2023/10/26 05:01:04;;;;;;;;;;;;;;;16.76;nan;99448.47;4967241;28;19922;-88
2023/10/26 05:03:31;;;;;;;;;;;;;;;16.78;nan;99442.75;4968814;28;20659;-88
2023/10/26 05:05:57;;;;;;;;;;;;;;;16.80;nan;99451.34;4969124;28;20140;-88
2023/10/26 05:08:24;;;;;;;;;;;;;;;16.81;nan;99450.22;4967831;28;20142;-88
2023/10/26 05:10:51;;;;;;;;;;;;;;;16.80;nan;99446.72;4969563;28;20307;-89
2023/10/26 05:13:21;;;;;;;;;;;;;;;16.80;nan;99445.94;4967726;28;19921;-88
2023/10/26 05:15:50;;;;;;;;;;;;;;;16.82;nan;99446.41;4971047;28;19960;-88
2023/10/26 05:18:18;;;;;;;;;;;;;;;16.84;nan;99446.88;4967187;28;19922;-88
2023/10/26 05:20:48;;;;;;;;;;;;;;;16.85;nan;99448.44;4972152;28;19925;-88
2023/10/26 05:23:15;;;;;;;;;;;;;;;16.86;nan;99444.63;4967983;28;19962;-87
2023/10/26 05:25:42;;;;;;;;;;;;;;;16.87;nan;99447.00;4964326;28;20008;-88
2023/10/26 05:28:12;;;;;;;;;;;;;;;16.87;nan;99438.91;4969209;28;20422;-88
2023/10/26 05:30:40;;;;;;;;;;;;;;;16.86;nan;99440.00;4972036;28;20064;-88
2023/10/26 05:33:06;;;;;;;;;;;;;;;16.87;nan;99441.59;4967199;28;20017;-87
2023/10/26 05:35:34;;;;;;;;;;;;;;;16.90;nan;99441.00;4970449;28;20381;-88
2023/10/26 05:37:59;;;;;;;;;;;;;;;16.93;nan;99439.53;4965789;28;20226;-86
2023/10/26 05:40:25;;;;;;;;;;;;;;;16.95;nan;99433.81;4971967;28;19969;-87
2023/10/26 05:42:52;;;;;;;;;;;;;;;16.98;nan;99436.66;4973350;28;19918;-87
2023/10/26 05:45:19;;;;;;;;;;;;;;;17.00;nan;99441.75;4975374;28;19922;-88
2023/10/26 05:47:52;;;;;;;;;;;;;;;17.02;nan;99440.31;4964453;28;20398;-88
2023/10/26 05:50:21;;;;;;;;;;;;;;;17.03;nan;99439.19;4969680;28;19922;-88
2023/10/26 05:52:48;;;;;;;;;;;;;;;17.06;nan;99441.28;4970307;28;19922;-88
2023/10/26 05:55:14;;;;;;;;;;;;;;;17.06;nan;99443.97;4971499;28;20029;-88
2023/10/26 05:57:41;;;;;;;;;;;;;;;17.07;nan;99445.56;4972625;28;19936;-87
2023/10/26 06:00:10;;;;;;;;;;;;;;;17.08;nan;99443.66;4971478;28;20032;-87
2023/10/26 06:02:38;;;;;;;;;;;;;;;17.06;nan;99443.97;4960292;28;20025;-86
2023/10/26 06:05:03;;;;;;;;;;;;;;;17.08;nan;99449.84;4970608;28;20016;-88
2023/10/26 06:07:30;;;;;;;;;;;;;;;17.10;nan;99450.31;4970478;28;20405;-88
2023/10/26 06:09:55;;;;;;;;;;;;;;;17.11;nan;99446.50;4975162;28;20012;-87
2023/10/26 06:12:23;;;;;;;;;;;;;;;17.13;nan;99449.69;4970091;28;20072;-86
2023/10/26 06:14:51;;;;;;;;;;;;;;;17.16;nan;99446.31;4966680;28;19926;-88
2023/10/26 06:17:17;;;;;;;;;;;;;;;17.20;nan;99444.53;4975106;28;19917;-89
2023/10/26 06:19:46;;;;;;;;;;;;;;;17.24;nan;99446.63;4976939;28;20020;-88
2023/10/26 06:22:14;;;;;;;;;;;;;;;17.27;nan;99449.47;4978041;28;20068;-88
2023/10/26 06:24:43;;;;;;;;;;;;;;;17.30;nan;99453.44;4977196;28;20024;-88
2023/10/26 06:27:13;;;;;;;;;;;;;;;17.30;nan;99442.63;4980237;28;19970;-88
2023/10/26 06:29:44;;;;;;;;;;;;;;;17.30;nan;99437.22;4978696;28;19924;-87
2023/10/26 06:32:13;;;;;;;;;;;;;;;17.30;nan;99442.63;4974102;28;19976;-88
2023/10/26 06:34:41;;;;;;;;;;;;;;;17.32;nan;99448.50;4975010;28;19965;-87
2023/10/26 06:37:09;;;;;;;;;;;;;;;17.35;nan;99439.72;4978531;28;19996;-87
2023/10/26 06:39:35;;;;;;;;;;;;;;;17.38;nan;99448.00;4980653;28;20303;-88
2023/10/26 06:42:02;;;;;;;;;;;;;;;17.40;nan;99442.25;4975046;28;19934;-87
2023/10/26 06:44:28;;;;;;;;;;;;;;;17.42;nan;99440.03;4976137;28;20017;-87
2023/10/26 06:46:55;;;;;;;;;;;;;;;17.44;nan;99437.78;4974721;28;20482;-88
2023/10/26 06:49:22;;;;;;;;;;;;;;;17.47;nan;99447.97;4980701;28;19933;-88
2023/10/26 06:51:49;;;;;;;;;;;;;;;17.49;nan;99443.03;4976484;28;20429;-88
2023/10/26 06:54:20;;;;;;;;;;;;;;;17.50;nan;99437.28;4979696;28;19921;-87
2023/10/26 06:56:47;;;;;;;;;;;;;;;17.50;nan;99436.47;4976166;28;19921;-88
2023/10/26 06:59:14;;;;;;;;;;;;;;;17.53;nan;99438.53;4974457;28;19918;-88
2023/10/26 07:01:39;;;;;;;;;;;;;;;17.54;nan;99432.00;4977876;28;20321;-87
2023/10/26 07:04:05;;;;;;;;;;;;;;;17.57;nan;99438.66;4977603;28;20003;-88
2023/10/26 07:06:31;;;;;;;;;;;;;;;17.58;nan;99435.63;4980562;28;19952;-87
2023/10/26 07:08:57;;;;;;;;;;;;;;;17.61;nan;99440.44;4975514;28;20414;-88
2023/10/26 07:11:24;;;;;;;;;;;;;;;17.63;nan;99440.88;4978786;28;19918;-88
2023/10/26 07:14:07;;;;;;;;;;;;;;;17.67;nan;99447.22;4978893;28;19929;-88
2023/10/26 07:16:36;;;;;;;;;;;;;;;17.70;nan;99445.81;4976657;28;20413;-87
2023/10/26 07:19:04;;;;;;;;;;;;;;;17.71;nan;99436.56;4975610;28;19922;-87
2023/10/26 07:21:36;;;;;;;;;;;;;;;17.71;nan;99440.06;4976151;28;19921;-87
2023/10/26 07:24:05;;;;;;;;;;;;;;;17.69;nan;99442.31;4975482;28;19922;-87
2023/10/26 07:26:32;;;;;;;;;;;;;;;17.71;nan;99441.97;4978244;28;19925;-88
2023/10/26 07:29:00;;;;;;;;;;;;;;;17.71;nan;99445.50;4979017;28;20358;-87
2023/10/26 07:31:26;;;;;;;;;;;;;;;17.69;nan;99442.31;4973008;28;20370;-87
2023/10/26 07:33:53;;;;;;;;;;;;;;;17.70;nan;99452.03;4974875;28;19918;-87
2023/10/26 07:36:23;;;;;;;;;;;;;;;17.71;nan;99447.41;4978465;28;19926;-87
2023/10/26 07:38:51;;;;;;;;;;;;;;;17.71;nan;99448.19;4977217;28;19922;-87
2023/10/26 07:41:37;;;;;;;;;;;;;;;17.73;nan;99456.00;4975309;28;20405;-87
2023/10/26 07:44:24;;;;;;;;;;;;;;;17.76;nan;99453.41;4979229;28;19965;-87
2023/10/26 07:46:49;;;;;;;;;;;;;;;17.77;nan;99452.31;4974819;28;19958;-87
2023/10/26 07:49:16;;;;;;;;;;;;;;;17.80;nan;99451.66;4971845;28;19926;-87
2023/10/26 07:51:42;;;;;;;;;;;;;;;17.81;nan;99447.84;4975756;28;19922;-87
2023/10/26 07:54:09;;;;;;;;;;;;;;;17.83;nan;99446.72;4976283;28;20294;-88
2023/10/26 07:56:38;;;;;;;;;;;;;;;17.85;nan;99452.59;4973375;28;20290;-87
2023/10/26 07:59:07;;;;;;;;;;;;;;;17.86;nan;99446.84;4974219;28;19926;-88
2023/10/26 08:01:33;;;;;;;;;;;;;;;17.88;nan;99450.03;4976970;28;19968;-88
2023/10/26 08:03:59;;;;;;;;;;;;;;;17.89;nan;99457.03;4973132;28;20410;-87
2023/10/26 08:06:26;;;;;;;;;;;;;;;17.91;nan;99457.47;4972866;28;19985;-87
2023/10/26 08:08:58;;;;;;;;;;;;;;;17.93;nan;99449.03;4973488;28;20185;-87
2023/10/26 08:11:30;;;;;;;;;;;;;;;17.94;nan;99456.81;4976783;28;19926;-87
2023/10/26 08:13:57;;;;;;;;;;;;;;;17.95;nan;99454.91;4974086;28;19937;-87
2023/10/26 08:16:27;;;;;;;;;;;;;;;17.97;nan;99455.41;4974531;28;19921;-85
2023/10/26 08:18:53;;;;;;;;;;;;;;;18.00;nan;99449.31;4976075;28;19941;-87
2023/10/26 08:21:21;;;;;;;;;;;;;;;17.99;nan;99453.94;4973207;28;19989;-88
2023/10/26 08:23:50;;;;;;;;;;;;;;;17.98;nan;99446.16;4979401;28;19926;-87
2023/10/26 08:26:16;;;;;;;;;;;;;;;18.00;nan;99446.59;4975811;28;19928;-87
2023/10/26 08:28:44;;;;;;;;;;;;;;;18.00;nan;99449.31;4975487;28;19933;-87
2023/10/26 08:31:12;;;;;;;;;;;;;;;17.99;nan;99447.72;4973768;28;20048;-87
2023/10/26 08:33:39;;;;;;;;;;;;;;;17.99;nan;99455.88;4976116;28;20346;-88
2023/10/26 08:36:05;;;;;;;;;;;;;;;18.01;nan;99457.13;4973655;28;19961;-88
2023/10/26 08:38:32;;;;;;;;;;;;;;;18.01;nan;99456.31;4974261;28;19965;-86
2023/10/26 08:40:59;;;;;;;;;;;;;;;17.98;nan;99460.50;4973052;28;19925;-88
2023/10/26 08:43:25;;;;;;;;;;;;;;;17.96;nan;99461.94;4976030;28;19981;-88
2023/10/26 08:45:52;;;;;;;;;;;;;;;17.97;nan;99466.25;4972424;28;19938;-86
2023/10/26 08:48:23;;;;;;;;;;;;;;;17.93;nan;99457.16;4976853;28;19984;-88
2023/10/26 08:50:48;;;;;;;;;;;;;;;17.95;nan;99463.03;4975544;28;19944;-88
2023/10/26 08:53:15;;;;;;;;;;;;;;;17.95;nan;99465.75;4978041;28;19957;-87
2023/10/26 08:55:43;;;;;;;;;;;;;;;17.94;nan;99458.75;4970950;28;19976;-88
2023/10/26 08:58:15;;;;;;;;;;;;;;;17.94;nan;99466.88;4975781;28;20012;-88
2023/10/26 09:00:43;;;;;;;;;;;;;;;17.92;nan;99472.63;4969173;28;20417;-87
2023/10/26 09:03:13;;;;;;;;;;;;;;;17.90;nan;99474.06;4972572;28;19941;-87
2023/10/26 09:06:01;;;;;;;;;;;;;;;17.91;nan;99475.66;4970793;28;19925;-87
2023/10/26 09:08:28;;;;;;;;;;;;;;;17.92;nan;99477.25;4972483;28;19965;-87
2023/10/26 09:10:56;;;;;;;;;;;;;;;17.93;nan;99481.53;4973743;28;20144;-88
2023/10/26 09:13:30;;;;;;;;;;;;;;;17.92;nan;99474.53;4977201;28;20033;-89
2023/10/26 09:15:58;;;;;;;;;;;;;;;17.88;nan;99474.41;4974533;28;19933;-88
2023/10/26 09:18:26;;;;;;;;;;;;;;;17.87;nan;99480.16;4970148;28;20425;-88
2023/10/26 09:21:06;;;;;;;;;;;;;;;17.89;nan;99486.81;4974768;28;19922;-87
2023/10/26 09:23:45;;;;;;;;;;;;;;;17.88;nan;99484.44;4975512;28;20361;-86
2023/10/26 09:26:13;;;;;;;;;;;;;;;17.88;nan;99482.53;4972607;28;19937;-88
2023/10/26 09:28:55;;;;;;;;;;;;;;;17.89;nan;99486.81;4972822;28;20113;-89
2023/10/26 09:31:22;;;;;;;;;;;;;;;17.89;nan;99483.31;4975790;28;19979;-88
2023/10/26 09:33:48;;;;;;;;;;;;;;;17.91;nan;99486.50;4974588;28;19922;-88
2023/10/26 09:36:17;;;;;;;;;;;;;;;17.93;nan;99490.47;4974918;28;20093;-88
2023/10/26 09:38:47;;;;;;;;;;;;;;;17.95;nan;99487.44;4980294;28;19929;-88
2023/10/26 09:41:18;;;;;;;;;;;;;;;17.98;nan;99492.22;4974253;28;19929;-88
2023/10/26 09:43:45;;;;;;;;;;;;;;;17.96;nan;99497.97;4975944;28;19922;-88
2023/10/26 09:46:14;;;;;;;;;;;;;;;17.96;nan;99497.16;4976317;28;19922;-88
2023/10/26 09:48:42;;;;;;;;;;;;;;;17.95;nan;99501.75;4977742;28;19949;-88
2023/10/26 09:51:18;;;;;;;;;;;;;;;17.96;nan;99503.38;4975303;28;19933;-87
2023/10/26 09:53:45;;;;;;;;;;;;;;;17.96;nan;99505.31;4975415;28;19989;-88
2023/10/26 09:56:15;;;;;;;;;;;;;;;17.98;nan;99506.56;4973137;28;19922;-88
2023/10/26 09:58:41;;;;;;;;;;;;;;;17.99;nan;99508.16;4978077;28;20541;-87
2023/10/26 10:01:27;;;;;;;;;;;;;;;18.01;nan;99503.19;4972909;28;19928;-88
2023/10/26 10:03:54;;;;;;;;;;;;;;;18.00;nan;99504.31;4978495;28;19926;-88
2023/10/26 10:06:39;;;;;;;;;;;;;;;18.01;nan;99505.91;4974878;28;20226;-88
2023/10/26 10:09:10;;;;;;;;;;;;;;;18.02;nan;99512.91;4977145;28;19922;-88
2023/10/26 10:11:41;;;;;;;;;;;;;;;17.99;nan;99510.06;4978891;28;20134;-88
2023/10/26 10:14:08;;;;;;;;;;;;;;;17.97;nan;99507.69;4976446;28;19929;-88
2023/10/26 10:16:45;;;;;;;;;;;;;;;17.98;nan;99498.44;4976724;28;20306;-88
2023/10/26 10:19:18;;;;;;;;;;;;;;;18.01;nan;99503.19;4976790;28;19917;-88
2023/10/26 10:21:47;;;;;;;;;;;;;;;18.02;nan;99495.84;4976782;28;19918;-88
2023/10/26 10:24:35;;;;;;;;;;;;;;;18.02;nan;99502.06;4977965;28;19926;-87
2023/10/26 10:27:11;;;;;;;;;;;;;;;17.98;nan;99500.34;4979212;28;19922;-88
2023/10/26 10:29:37;;;;;;;;;;;;;;;17.96;nan;99508.00;4978206;28;19936;-88
2023/10/26 10:32:06;;;;;;;;;;;;;;;17.98;nan;99505.75;4976680;28;20175;-89
2023/10/26 10:34:52;;;;;;;;;;;;;;;17.99;nan;99502.72;4975533;28;19918;-88
2023/10/26 10:37:21;;;;;;;;;;;;;;;18.03;nan;99503.66;4977193;28;19929;-88
2023/10/26 10:40:05;;;;;;;;;;;;;;;18.05;nan;99509.53;4977803;28;19926;-88
2023/10/26 10:42:32;;;;;;;;;;;;;;;17.99;nan;99502.72;4977253;28;20444;-88
2023/10/26 10:45:00;;;;;;;;;;;;;;;17.99;nan;99508.16;4973257;28;19926;-88
2023/10/26 10:47:30;;;;;;;;;;;;;;;18.00;nan;99506.22;4974706;28;19981;-87
2023/10/26 10:50:17;;;;;;;;;;;;;;;18.02;nan;99507.50;4977244;28;20162;-87
2023/10/26 10:52:43;;;;;;;;;;;;;;;18.04;nan;99510.66;4977854;28;19922;-88
2023/10/26 10:55:10;;;;;;;;;;;;;;;18.06;nan;99511.13;4976529;28;20024;-88
2023/10/26 10:57:35;;;;;;;;;;;;;;;18.06;nan;99507.63;4972715;28;20025;-88
2023/10/26 11:00:03;;;;;;;;;;;;;;;18.04;nan;99499.81;4977120;28;20393;-88
2023/10/26 11:02:30;;;;;;;;;;;;;;;18.03;nan;99497.44;4974828;28;19922;-88
2023/10/26 11:04:59;;;;;;;;;;;;;;;18.04;nan;99493.59;4978312;28;19933;-87
2023/10/26 11:07:29;;;;;;;;;;;;;;;18.05;nan;99500.63;4978858;28;19918;-88
2023/10/26 11:09:57;;;;;;;;;;;;;;;18.06;nan;99502.19;4957909;28;19969;-87
2023/10/26 11:12:25;;;;;;;;;;;;;;;18.06;nan;99492.16;4974100;28;20452;-88
2023/10/26 11:14:54;;;;;;;;;;;;;;;18.10;nan;99492.28;4976294;28;20008;-89
2023/10/26 11:17:26;;;;;;;;;;;;;;;18.09;nan;99491.50;4974450;28;20292;-86
2023/10/26 11:19:57;;;;;;;;;;;;;;;18.12;nan;99487.31;4969591;28;19969;-89
2023/10/26 11:22:27;;;;;;;;;;;;;;;18.12;nan;99487.31;4973298;28;19918;-88
2023/10/26 11:24:56;;;;;;;;;;;;;;;18.15;nan;99483.97;4975159;28;19996;-89
2023/10/26 11:27:24;;;;;;;;;;;;;;;18.17;nan;99492.56;4974790;28;20398;-89
2023/10/26 11:30:06;;;;;;;;;;;;;;;18.17;nan;99487.16;4981011;28;20020;-88
2023/10/26 11:32:33;;;;;;;;;;;;;;;18.16;nan;99495.63;4982110;28;19918;-88
2023/10/26 11:35:09;;;;;;;;;;;;;;;18.17;nan;99497.22;4975029;28;19966;-89
2023/10/26 11:37:46;;;;;;;;;;;;;;;18.19;nan;99495.75;4977635;28;19917;-89
2023/10/26 11:40:15;;;;;;;;;;;;;;;18.21;nan;99496.22;4975300;28;20053;-88
2023/10/26 11:42:49;;;;;;;;;;;;;;;18.20;nan;99496.53;4974603;28;19926;-89
2023/10/26 11:45:17;;;;;;;;;;;;;;;18.21;nan;99493.50;4975598;28;20276;-89
2023/10/26 11:47:44;;;;;;;;;;;;;;;18.22;nan;99494.28;4971073;28;19930;-89
2023/10/26 11:50:18;;;;;;;;;;;;;;;18.25;nan;99491.72;4974322;28;19918;-88
2023/10/26 11:52:45;;;;;;;;;;;;;;;18.30;nan;99486.09;4979769;28;19929;-89
2023/10/26 11:55:14;;;;;;;;;;;;;;;18.31;nan;99495.84;4979070;28;20394;-90
2023/10/26 11:57:41;;;;;;;;;;;;;;;18.35;nan;99491.34;4972730;28;19925;-89
2023/10/26 12:00:07;;;;;;;;;;;;;;;18.37;nan;99491.78;4975135;28;20046;-90
2023/10/26 12:02:36;;;;;;;;;;;;;;;18.41;nan;99500.06;4974589;28;20005;-89
2023/10/26 12:05:03;;;;;;;;;;;;;;;18.45;nan;99500.19;4971500;28;19926;-89
2023/10/26 12:07:31;;;;;;;;;;;;;;;18.47;nan;99506.88;4968194;28;19936;-89
2023/10/26 12:10:10;;;;;;;;;;;;;;;18.50;nan;99506.22;4973770;28;20394;-90
2023/10/26 12:12:37;;;;;;;;;;;;;;;18.49;nan;99507.34;4970987;28;19925;-89
2023/10/26 12:15:06;;;;;;;;;;;;;;;18.51;nan;99507.81;4974926;28;20012;-89
2023/10/26 12:17:31;;;;;;;;;;;;;;;18.52;nan;99503.97;4973551;28;19926;-89
2023/10/26 12:19:58;;;;;;;;;;;;;;;18.53;nan;99516.41;4974576;28;19993;-89
2023/10/26 12:22:25;;;;;;;;;;;;;;;18.54;nan;99509.06;4973880;28;19922;-89
2023/10/26 12:24:54;;;;;;;;;;;;;;;18.53;nan;99507.47;4974489;28;19968;-89
2023/10/26 12:27:22;;;;;;;;;;;;;;;18.52;nan;99506.69;4972824;28;20366;-89
2023/10/26 12:29:50;;;;;;;;;;;;;;;18.51;nan;99507.03;4966906;28;20016;-89
2023/10/26 12:32:19;;;;;;;;;;;;;;;18.51;nan;99507.03;4979095;28;20028;-91
2023/10/26 12:34:50;;;;;;;;;;;;;;;18.51;nan;99507.03;4974309;28;19929;-90
2023/10/26 12:37:22;;;;;;;;;;;;;;;18.50;nan;99514.38;4977947;28;19922;-89
2023/10/26 12:39:51;;;;;;;;;;;;;;;18.49;nan;99520.91;4974906;28;19930;-89
2023/10/26 12:42:20;;;;;;;;;;;;;;;18.47;nan;99519.63;4978870;28;19922;-91
2023/10/26 12:44:47;;;;;;;;;;;;;;;18.42;nan;99516.00;4977469;28;19926;-89
2023/10/26 12:47:17;;;;;;;;;;;;;;;18.39;nan;99516.66;4973576;28;20393;-89
2023/10/26 12:49:45;;;;;;;;;;;;;;;18.40;nan;99510.13;4976686;28;20163;-90
2023/10/26 12:52:10;;;;;;;;;;;;;;;18.41;nan;99511.69;4972950;28;19921;-90
2023/10/26 12:54:37;;;;;;;;;;;;;;;18.43;nan;99517.59;4970266;28;19937;-89
2023/10/26 12:57:03;;;;;;;;;;;;;;;18.45;nan;99514.53;4957244;28;19922;-90
2023/10/26 12:59:32;;;;;;;;;;;;;;;18.48;nan;99518.50;4970777;28;19917;-90
2023/10/26 13:01:59;;;;;;;;;;;;;;;18.49;nan;99522.81;4971881;28;20516;-88
2023/10/26 13:04:26;;;;;;;;;;;;;;;18.46;nan;99526.19;4979664;28;19922;-90
2023/10/26 13:06:58;;;;;;;;;;;;;;;18.43;nan;99523.00;4976899;28;19977;-89
2023/10/26 13:09:26;;;;;;;;;;;;;;;18.42;nan;99515.22;4984238;28;20005;-90
2023/10/26 13:11:55;;;;;;;;;;;;;;;18.45;nan;99525.38;4976985;28;19930;-87
2023/10/26 13:14:24;;;;;;;;;;;;;;;18.42;nan;99524.13;4981399;28;19929;-89
2023/10/26 13:16:53;;;;;;;;;;;;;;;18.42;nan;99526.84;4978593;28;20410;-89